Time;durP1;ratioP1;P1;durP2;ratioP2;P2;SDS_P1;SDS_P2;PMS_P1;PMS_P2;Temp;Humidity;BMP_temperature;BMP_pressure;BME280_temperature;BME280_humidity;BME280_pressure;Samples;Min_cycle;Max_cycle;Signal;HPM_P1;HPM_P2
2021/11/28 00:00:18;;;;;;;;;26.50;26.50;;;;;11.80;92.72;100467.00;4807093;29;11175;-72
2021/11/28 00:03:17;;;;;;;;;27.75;27.25;;;;;11.79;92.87;100459.03;4817148;29;11045;-72
2021/11/28 00:06:26;;;;;;;;;32.00;31.25;;;;;11.83;92.52;100458.03;4812156;29;10980;-72
2021/11/28 00:15:19;;;;;;;;;24.50;24.50;;;;;11.73;92.57;100458.47;4842674;29;11026;-72
2021/11/28 00:18:14;;;;;;;;;16.50;16.50;;;;;11.74;92.59;100468.38;4842054;29;11679;-72
2021/11/28 00:21:10;;;;;;;;;28.00;21.00;;;;;11.68;92.89;100461.44;4842554;29;10578;-72
2021/11/28 00:24:06;;;;;;;;;27.50;23.50;;;;;11.72;92.92;100461.56;4828609;29;10526;-72
2021/11/28 00:27:02;;;;;;;;;22.75;22.75;;;;;11.74;92.58;100456.50;4839052;29;10687;-72
2021/11/28 00:29:58;;;;;;;;;33.75;31.50;;;;;11.65;92.70;100453.81;4842019;29;10711;-72
2021/11/28 00:32:54;;;;;;;;;20.75;20.75;;;;;11.69;92.57;100446.44;4811947;29;10826;-72
2021/11/28 00:35:50;;;;;;;;;22.25;21.75;;;;;11.57;92.88;100441.66;4837981;29;10530;-72
2021/11/28 00:38:46;;;;;;;;;24.00;24.00;;;;;11.62;92.75;100438.69;4838059;29;10484;-71
2021/11/28 00:41:14;;;;;;;;;25.50;25.25;;;;;11.62;92.47;100430.38;4843094;29;10778;-71
2021/11/28 00:44:11;;;;;;;;;23.25;23.25;;;;;11.54;92.89;100441.56;4841493;29;10784;-72
2021/11/28 00:47:08;;;;;;;;;30.00;29.25;;;;;11.59;92.45;100444.13;4837686;29;10601;-71
2021/11/28 00:50:25;;;;;;;;;25.50;25.50;;;;;11.58;92.29;100445.28;4823752;29;10957;-72
2021/11/28 00:53:21;;;;;;;;;22.75;22.75;;;;;11.58;92.24;100436.97;4823802;29;10978;-71
2021/11/28 00:56:18;;;;;;;;;27.25;26.50;;;;;11.50;92.36;100438.69;4823838;29;11709;-71
2021/11/28 00:59:14;;;;;;;;;20.25;20.25;;;;;11.40;93.18;100434.38;4841488;29;10953;-72
2021/11/28 01:02:09;;;;;;;;;21.50;21.50;;;;;11.45;93.01;100438.91;4839340;29;10846;-72
2021/11/28 01:05:06;;;;;;;;;31.75;28.00;;;;;11.44;92.73;100440.06;4823601;29;10798;-72
2021/11/28 01:08:03;;;;;;;;;20.75;19.00;;;;;11.37;93.68;100445.34;4835472;29;10888;-72
2021/11/28 01:10:58;;;;;;;;;23.00;22.25;;;;;11.37;93.70;100439.81;4832738;29;10679;-71
2021/11/28 01:13:54;;;;;;;;;23.75;21.75;;;;;11.41;93.39;100449.84;4825080;29;10692;-71
2021/11/28 01:16:50;;;;;;;;;20.00;19.75;;;;;11.43;93.77;100437.63;4829050;29;10959;-71
2021/11/28 01:19:46;;;;;;;;;20.25;20.25;;;;;11.38;93.84;100445.00;4826468;29;10786;-71
2021/11/28 01:22:41;;;;;;;;;18.50;18.25;;;;;11.19;94.56;100450.22;4837305;29;10767;-72
2021/11/28 01:25:38;;;;;;;;;19.25;19.25;;;;;11.35;94.11;100442.91;4840647;29;10666;-71
2021/11/28 01:28:33;;;;;;;;;17.00;17.00;;;;;11.39;93.70;100437.50;4837547;29;10674;-71
2021/11/28 01:31:29;;;;;;;;;18.50;18.50;;;;;11.33;93.93;100447.16;4830290;29;10852;-71
2021/11/28 01:34:25;;;;;;;;;19.00;19.00;;;;;11.32;94.09;100449.13;4822585;29;11460;-71
2021/11/28 01:37:21;;;;;;;;;18.50;18.50;;;;;11.36;93.91;100447.28;4831287;29;11496;-71
2021/11/28 01:40:19;;;;;;;;;18.25;18.25;;;;;11.24;94.15;100450.00;4823079;29;10794;-71
2021/11/28 01:43:17;;;;;;;;;21.25;19.50;;;;;11.05;95.34;100449.72;4823099;29;10730;-71
2021/11/28 01:46:13;;;;;;;;;22.00;20.75;;;;;11.31;94.36;100453.03;4817465;29;10689;-71
2021/11/28 01:49:10;;;;;;;;;18.50;18.50;;;;;11.31;94.13;100453.03;4834007;29;10881;-71
2021/11/28 01:52:07;;;;;;;;;16.50;16.50;;;;;11.30;93.95;100459.72;4828952;29;10620;-71
2021/11/28 01:55:06;;;;;;;;;17.25;17.25;;;;;11.37;93.96;100467.50;4829589;29;10548;-71
2021/11/28 01:58:05;;;;;;;;;20.00;20.00;;;;;11.30;93.46;100473.56;4846241;29;10315;-71
2021/11/28 02:01:05;;;;;;;;;15.25;15.25;;;;;11.48;93.10;100470.63;4846683;29;10436;-71
2021/11/28 02:04:02;;;;;;;;;18.00;18.00;;;;;11.44;93.01;100464.97;4846970;29;10412;-71
2021/11/28 02:06:58;;;;;;;;;20.00;20.00;;;;;11.45;93.02;100469.34;4829157;29;10537;-72
2021/11/28 02:09:54;;;;;;;;;20.50;20.50;;;;;11.29;93.37;100479.47;4828928;29;10614;-71
2021/11/28 02:12:50;;;;;;;;;21.25;21.25;;;;;11.34;93.76;100485.56;4828862;29;10605;-71
2021/11/28 02:15:46;;;;;;;;;21.00;20.00;;;;;11.27;94.07;100478.97;4831140;29;10713;-71
2021/11/28 02:18:42;;;;;;;;;19.00;19.00;;;;;11.30;93.97;100489.38;4828838;29;10736;-71
2021/11/28 02:21:38;;;;;;;;;23.50;23.25;;;;;11.32;94.02;100485.09;4836135;29;10705;-72
2021/11/28 02:24:33;;;;;;;;;20.50;20.50;;;;;11.32;93.91;100481.53;4842539;29;10834;-71
2021/11/28 02:27:29;;;;;;;;;20.75;20.75;;;;;11.24;94.44;100477.69;4844078;29;11555;-72
2021/11/28 02:30:25;;;;;;;;;26.00;24.75;;;;;11.31;94.10;100479.91;4816370;29;10808;-72
2021/11/28 02:33:22;;;;;;;;;24.00;23.75;;;;;11.34;94.01;100477.25;4845995;29;11636;-72
2021/11/28 02:36:18;;;;;;;;;20.25;19.50;;;;;11.37;93.81;100478.56;4845145;29;10962;-72
2021/11/28 02:38:52;;;;;;;;;24.00;21.75;;;;;11.36;93.55;100482.47;4836600;29;10874;-72
2021/11/28 02:41:48;;;;;;;;;24.50;22.75;;;;;11.33;93.84;100495.03;4828819;29;10746;-72
2021/11/28 02:44:46;;;;;;;;;27.00;26.00;;;;;11.28;94.01;100498.03;4838226;29;10925;-72
2021/11/28 02:47:42;;;;;;;;;26.50;26.50;;;;;11.25;94.56;100497.88;4846089;29;10691;-72
2021/11/28 02:50:39;;;;;;;;;22.50;22.50;;;;;11.29;94.67;100490.53;4824919;29;11066;-72
2021/11/28 02:53:35;;;;;;;;;23.50;23.50;;;;;11.27;94.74;100501.13;4831710;29;10806;-71
2021/11/28 02:56:32;;;;;;;;;27.50;26.00;;;;;11.26;94.85;100502.25;4842292;29;10674;-71
2021/11/28 02:59:28;;;;;;;;;23.50;23.25;;;;;11.28;94.71;100508.28;4839450;29;10860;-72
2021/11/28 03:02:24;;;;;;;;;22.25;22.25;;;;;11.27;94.50;100515.78;4837233;29;10800;-71
2021/11/28 03:05:00;;;;;;;;;23.25;23.25;;;;;11.33;94.59;100522.72;4837684;29;10783;-72
2021/11/28 03:07:56;;;;;;;;;21.75;21.75;;;;;11.32;94.47;100523.88;4837047;29;10964;-72
2021/11/28 03:10:55;;;;;;;;;18.00;17.50;;;;;11.30;94.76;100517.06;4836700;29;10709;-72
2021/11/28 03:13:53;;;;;;;;;20.00;19.00;;;;;11.29;94.84;100518.22;4838570;29;10674;-71
2021/11/28 03:16:49;;;;;;;;;20.00;18.75;;;;;11.25;95.39;100514.50;4837674;29;10901;-71
2021/11/28 03:19:44;;;;;;;;;19.25;19.25;;;;;11.24;94.99;100508.16;4836678;29;10702;-72
2021/11/28 03:22:47;;;;;;;;;16.00;15.75;;;;;11.24;94.83;100510.91;4835850;29;10607;-71
2021/11/28 03:25:43;;;;;;;;;15.25;15.25;;;;;11.23;94.75;100509.31;4839691;29;10694;-72
2021/11/28 03:28:45;;;;;;;;;18.75;18.75;;;;;11.33;94.29;100519.94;4823828;29;10660;-71
2021/11/28 03:31:48;;;;;;;;;18.00;15.50;;;;;11.25;94.17;100520.84;4835413;29;10629;-72
2021/11/28 03:34:44;;;;;;;;;19.00;19.00;;;;;11.25;94.54;100511.72;4840809;29;10617;-72
2021/11/28 03:37:41;;;;;;;;;17.00;16.00;;;;;11.23;94.45;100523.13;4835933;29;10605;-71
2021/11/28 03:40:38;;;;;;;;;18.75;18.50;;;;;11.26;94.11;100530.75;4836158;29;10806;-71
2021/11/28 03:43:35;;;;;;;;;16.50;16.50;;;;;11.32;93.69;100526.63;4836119;29;10622;-72
2021/11/28 03:46:30;;;;;;;;;16.75;16.75;;;;;11.31;93.34;100524.22;4836365;29;10489;-71
2021/11/28 03:49:27;;;;;;;;;19.50;19.50;;;;;11.17;93.51;100518.97;4837173;29;10511;-72
2021/11/28 03:52:23;;;;;;;;;17.50;15.50;;;;;11.19;94.36;100513.88;4836279;29;10330;-72
2021/11/28 03:55:22;;;;;;;;;14.75;14.75;;;;;11.13;94.59;100535.44;4835186;29;10450;-72
2021/11/28 03:58:17;;;;;;;;;15.00;15.00;;;;;11.20;93.93;100547.94;4839217;29;11266;-72
2021/11/28 04:01:18;;;;;;;;;14.75;14.75;;;;;11.17;94.22;100546.63;4842386;29;10648;-72
2021/11/28 04:04:13;;;;;;;;;10.25;10.25;;;;;11.09;94.50;100553.06;4842080;29;10523;-72
2021/11/28 04:07:10;;;;;;;;;15.75;15.75;;;;;11.03;94.77;100538.59;4841722;29;10437;-72
2021/11/28 04:10:07;;;;;;;;;15.50;14.75;;;;;11.04;95.28;100536.63;4825093;29;10564;-72
2021/11/28 04:13:04;;;;;;;;;15.25;15.25;;;;;11.02;94.62;100536.19;4823875;29;10531;-72
2021/11/28 04:15:59;;;;;;;;;11.50;11.50;;;;;10.99;94.67;100534.91;4837308;29;10458;-72
2021/11/28 04:18:55;;;;;;;;;15.00;15.00;;;;;11.12;94.15;100538.56;4839092;29;10824;-72
2021/11/28 04:21:51;;;;;;;;;13.50;13.00;;;;;11.08;94.12;100535.63;4840369;29;10607;-72
2021/11/28 04:24:48;;;;;;;;;14.75;14.75;;;;;11.12;93.66;100541.31;4841598;29;10645;-73
2021/11/28 04:27:43;;;;;;;;;16.25;16.25;;;;;11.14;93.64;100539.03;4838418;29;10313;-72
2021/11/28 04:30:39;;;;;;;;;17.75;17.75;;;;;11.17;93.42;100541.09;4841831;29;10717;-73
2021/11/28 04:33:35;;;;;;;;;14.00;14.00;;;;;11.08;93.52;100546.72;4841706;29;10827;-72
2021/11/28 04:36:31;;;;;;;;;17.25;17.25;;;;;10.92;94.62;100540.16;4825018;29;10963;-72
2021/11/28 04:39:35;;;;;;;;;14.75;14.75;;;;;11.03;94.33;100543.31;4835480;29;10663;-72
2021/11/28 04:42:31;;;;;;;;;20.25;20.00;;;;;11.07;94.04;100544.28;4841406;29;10585;-72
2021/11/28 04:45:16;;;;;;;;;13.25;13.25;;;;;11.01;94.29;100534.56;4840468;29;10727;-72
2021/11/28 04:48:12;;;;;;;;;17.50;17.25;;;;;11.02;94.45;100534.22;4841274;29;10729;-72
2021/11/28 04:51:08;;;;;;;;;16.00;14.25;;;;;11.03;94.58;100535.03;4841218;29;10611;-72
2021/11/28 04:53:36;;;;;;;;;16.50;16.50;;;;;10.99;94.38;100539.63;4842279;29;10890;-72
2021/11/28 04:56:31;;;;;;;;;15.25;14.50;;;;;11.07;94.31;100550.63;4834569;29;10836;-72
2021/11/28 04:59:27;;;;;;;;;23.50;22.75;;;;;11.08;93.76;100552.25;4833855;29;10798;-73
2021/11/28 05:02:24;;;;;;;;;15.00;15.00;;;;;11.11;93.95;100553.53;4839591;29;10937;-72
2021/11/28 05:05:20;;;;;;;;;16.50;15.50;;;;;11.18;93.45;100564.06;4837964;29;11467;-72
2021/11/28 05:08:15;;;;;;;;;18.00;18.00;;;;;11.00;94.11;100557.84;4823507;29;10635;-72
2021/11/28 05:10:59;;;;;;;;;12.75;12.75;;;;;11.10;94.04;100562.97;4830296;29;11499;-72
2021/11/28 05:13:54;;;;;;;;;14.50;14.50;;;;;11.05;94.29;100563.19;4840263;29;10666;-72
2021/11/28 05:16:50;;;;;;;;;14.50;14.50;;;;;10.98;94.08;100571.22;4824216;29;10748;-72
2021/11/28 05:19:26;;;;;;;;;17.75;17.75;;;;;11.01;94.30;100578.84;4832441;29;10629;-73
2021/11/28 05:22:22;;;;;;;;;14.25;13.50;;;;;11.00;93.69;100579.97;4825008;29;10795;-72
2021/11/28 05:24:58;;;;;;;;;14.50;14.50;;;;;11.13;93.58;100585.25;4837701;29;10616;-72
2021/11/28 05:27:54;;;;;;;;;18.75;18.75;;;;;11.14;92.99;100586.88;4838023;29;10601;-72
2021/11/28 05:30:49;;;;;;;;;23.75;23.75;;;;;11.03;93.59;100579.31;4829374;29;10897;-72
2021/11/28 05:33:47;;;;;;;;;15.75;15.25;;;;;11.01;93.63;100574.09;4834004;29;10991;-72
2021/11/28 05:36:43;;;;;;;;;20.75;20.75;;;;;11.07;93.75;100571.97;4833998;29;10863;-72
2021/11/28 05:39:39;;;;;;;;;20.00;20.00;;;;;11.00;93.56;100571.69;4831033;29;10712;-73
2021/11/28 05:42:24;;;;;;;;;25.25;23.75;;;;;11.02;94.03;100564.66;4836139;29;10773;-72
2021/11/28 05:45:23;;;;;;;;;26.50;26.50;;;;;11.14;93.31;100575.00;4838636;29;10957;-72
2021/11/28 05:48:19;;;;;;;;;21.25;21.25;;;;;11.01;93.33;100560.28;4829631;29;11067;-72
2021/11/28 05:51:15;;;;;;;;;21.00;21.00;;;;;11.20;92.63;100568.13;4839522;29;10965;-71
2021/11/28 05:54:10;;;;;;;;;17.25;17.25;;;;;11.18;92.65;100581.47;4837674;29;11089;-71
2021/11/28 05:56:40;;;;;;;;;25.50;23.50;;;;;11.18;92.62;100569.59;4841570;29;10940;-72
2021/11/28 05:59:16;;;;;;;;;21.50;21.50;;;;;11.09;92.67;100564.13;4835828;29;11034;-71
2021/11/28 06:01:43;;;;;;;;;21.75;19.75;;;;;11.13;92.96;100557.59;4825246;29;10934;-72
2021/11/28 06:04:11;;;;;;;;;30.50;27.25;;;;;11.05;93.07;100568.72;4838940;29;11002;-73
2021/11/28 06:07:07;;;;;;;;;21.50;20.50;;;;;11.20;93.12;100567.31;4835343;29;11091;-72
2021/11/28 06:10:03;;;;;;;;;22.25;22.25;;;;;11.22;92.79;100570.53;4834916;29;11086;-71
2021/11/28 06:12:59;;;;;;;;;21.25;21.25;;;;;11.22;92.95;100582.44;4839942;29;11026;-71
2021/11/28 06:15:54;;;;;;;;;25.00;25.00;;;;;11.20;93.08;100573.66;4829002;29;10859;-71
2021/11/28 06:18:50;;;;;;;;;25.50;25.50;;;;;11.20;93.29;100567.31;4829621;29;10930;-71
2021/11/28 06:21:46;;;;;;;;;36.75;35.75;;;;;11.30;92.98;100573.25;4833198;29;11109;-71
2021/11/28 06:24:42;;;;;;;;;27.00;26.50;;;;;11.33;92.85;100575.31;4828509;29;11155;-71
2021/11/28 06:27:37;;;;;;;;;30.75;29.75;;;;;11.31;92.59;100572.09;4838476;29;11126;-71
2021/11/28 06:30:33;;;;;;;;;33.75;33.50;;;;;11.34;92.50;100574.16;4825456;29;11196;-71
2021/11/28 06:33:02;;;;;;;;;21.75;21.75;;;;;11.37;92.32;100576.28;4831214;29;11035;-70
2021/11/28 06:35:30;;;;;;;;;21.75;21.75;;;;;11.49;92.13;100577.47;4826108;29;10942;-69
2021/11/28 06:38:00;;;;;;;;;16.25;16.25;;;;;11.51;90.97;100567.69;4828832;29;11047;-70
2021/11/28 06:40:42;;;;;;;;;16.00;16.00;;;;;11.50;90.72;100549.47;4843907;29;10544;-70
2021/11/28 06:43:13;;;;;;;;;18.25;18.25;;;;;11.48;91.17;100550.94;4836125;29;11469;-71
2021/11/28 06:46:09;;;;;;;;;21.00;21.00;;;;;11.48;91.33;100551.75;4831682;29;10734;-72
2021/11/28 06:48:50;;;;;;;;;16.75;16.75;;;;;11.50;91.28;100555.00;4828208;29;10526;-71
2021/11/28 06:51:19;;;;;;;;;20.25;20.25;;;;;11.45;91.85;100548.84;4829101;29;10338;-71
2021/11/28 06:53:52;;;;;;;;;24.25;24.00;;;;;11.47;91.55;100561.19;4844744;29;10603;-72
2021/11/28 06:56:20;;;;;;;;;23.75;23.75;;;;;11.53;90.91;100568.16;4844812;29;10588;-72
2021/11/28 06:59:18;;;;;;;;;25.50;24.75;;;;;11.59;90.67;100557.69;4843486;29;10459;-72
2021/11/28 07:01:48;;;;;;;;;23.00;23.00;;;;;11.58;90.64;100558.84;4827656;29;11057;-72
2021/11/28 07:04:29;;;;;;;;;19.25;19.00;;;;;11.54;90.62;100567.00;4842571;29;10632;-71
2021/11/28 07:07:15;;;;;;;;;21.00;21.00;;;;;11.67;89.89;100574.22;4830819;29;10919;-70
2021/11/28 07:09:57;;;;;;;;;18.25;18.25;;;;;11.62;89.53;100579.16;4843884;29;10768;-71
2021/11/28 07:12:25;;;;;;;;;20.00;19.75;;;;;11.60;89.37;100578.69;4843994;29;10696;-70
2021/11/28 07:14:53;;;;;;;;;20.00;20.00;;;;;11.57;89.50;100579.34;4840819;29;10543;-70
2021/11/28 07:17:23;;;;;;;;;22.50;19.50;;;;;11.57;89.34;100582.94;4836115;29;11306;-73
2021/11/28 07:20:17;;;;;;;;;20.50;19.50;;;;;11.58;89.68;100578.22;4841544;29;10633;-71
2021/11/28 07:23:12;;;;;;;;;26.00;21.75;;;;;11.57;90.15;100563.53;4838470;29;10625;-71
2021/11/28 07:26:13;;;;;;;;;17.25;17.25;;;;;11.54;89.27;100572.53;4835555;29;10879;-70
2021/11/28 07:29:08;;;;;;;;;22.00;21.50;;;;;11.65;89.38;100570.13;4835979;29;10607;-70
2021/11/28 07:31:52;;;;;;;;;22.25;22.25;;;;;11.65;89.79;100572.91;4820140;29;10603;-70
2021/11/28 07:34:21;;;;;;;;;18.00;18.00;;;;;11.72;89.42;100570.41;4843390;29;10779;-71
2021/11/28 07:36:58;;;;;;;;;22.75;22.75;;;;;11.70;89.36;100567.97;4835309;29;10785;-71
2021/11/28 07:39:27;;;;;;;;;22.25;22.25;;;;;11.62;88.53;100568.88;4841029;29;11022;-71
2021/11/28 07:42:23;;;;;;;;;18.25;18.25;;;;;11.65;88.23;100570.97;4837551;29;10779;-72
2021/11/28 07:44:51;;;;;;;;;21.25;20.75;;;;;11.64;88.69;100574.88;4828407;29;10670;-71
2021/11/28 07:47:19;;;;;;;;;23.75;23.75;;;;;11.67;88.73;100574.22;4846210;29;10547;-71
2021/11/28 07:50:14;;;;;;;;;20.00;20.00;;;;;11.72;88.78;100566.81;4843482;29;10657;-72
2021/11/28 07:52:42;;;;;;;;;22.75;22.75;;;;;11.82;88.81;100561.72;4843826;29;11334;-72
2021/11/28 07:55:10;;;;;;;;;18.25;17.75;;;;;11.82;88.61;100561.72;4841495;29;10561;-71
2021/11/28 07:57:38;;;;;;;;;25.00;23.75;;;;;11.82;89.04;100558.94;4826554;29;10665;-71
2021/11/28 08:00:10;;;;;;;;;20.00;20.00;;;;;11.95;88.98;100556.97;4836431;29;10513;-70
2021/11/28 08:02:38;;;;;;;;;20.25;20.25;;;;;11.93;88.81;100554.56;4817490;29;10552;-72
2021/11/28 08:05:07;;;;;;;;;15.75;15.75;;;;;11.83;88.78;100551.44;4823625;29;10674;-72
2021/11/28 08:07:36;;;;;;;;;21.25;21.25;;;;;11.95;88.70;100554.22;4828128;29;10558;-73
2021/11/28 08:10:05;;;;;;;;;17.00;17.00;;;;;12.02;88.09;100553.66;4825497;29;10528;-72
2021/11/28 08:12:34;;;;;;;;;18.50;18.50;;;;;12.06;87.74;100544.31;4831071;29;10437;-71
2021/11/28 08:15:05;;;;;;;;;13.25;13.25;;;;;12.06;87.89;100555.41;4840680;29;10536;-71
2021/11/28 08:17:37;;;;;;;;;18.00;18.00;;;;;12.01;87.94;100563.94;4837190;29;10452;-72
2021/11/28 08:20:09;;;;;;;;;19.75;18.50;;;;;11.89;88.03;100561.97;4825751;29;11273;-72
2021/11/28 08:22:37;;;;;;;;;16.25;16.25;;;;;11.98;88.60;100549.97;4798621;29;10492;-72
2021/11/28 08:25:08;;;;;;;;;21.00;20.25;;;;;12.01;88.37;100563.13;4827983;29;11245;-72
2021/11/28 08:27:36;;;;;;;;;14.75;14.75;;;;;12.09;88.50;100560.25;4835995;29;10444;-71
2021/11/28 08:30:11;;;;;;;;;21.50;21.50;;;;;12.14;88.17;100560.03;4835191;29;10288;-71
2021/11/28 08:32:40;;;;;;;;;16.25;16.25;;;;;12.09;88.24;100559.44;4829271;29;10499;-72
2021/11/28 08:35:10;;;;;;;;;21.50;21.50;;;;;12.03;87.90;100560.81;4826020;29;10374;-72
2021/11/28 08:37:39;;;;;;;;;0.00;0.00;;;;;12.17;87.94;100553.78;4841031;29;11096;-72
2021/11/28 08:40:10;;;;;;;;;15.75;15.75;;;;;12.18;88.00;100558.19;4825658;29;10432;-71
2021/11/28 08:42:39;;;;;;;;;18.25;18.25;;;;;12.13;88.51;100563.16;4815511;29;10953;-70
2021/11/28 08:45:15;;;;;;;;;22.50;20.00;;;;;12.19;88.65;100558.97;4843062;29;10099;-71
2021/11/28 08:47:45;;;;;;;;;11.50;11.50;;;;;12.09;88.88;100567.75;4843083;29;10280;-70
2021/11/28 08:50:15;;;;;;;;;19.50;19.50;;;;;12.18;88.94;100551.81;4841950;29;10989;-71
2021/11/28 08:52:46;;;;;;;;;21.00;21.00;;;;;11.99;89.77;100543.25;4842009;29;11039;-71
2021/11/28 08:55:17;;;;;;;;;20.25;20.25;;;;;12.04;89.65;100537.47;4811705;29;10457;-71
2021/11/28 08:57:46;;;;;;;;;24.00;24.00;;;;;12.09;90.36;100537.25;4843006;29;10200;-71
2021/11/28 09:00:28;;;;;;;;;23.00;23.00;;;;;12.10;90.04;100544.41;4842364;29;10638;-71
2021/11/28 09:02:56;;;;;;;;;22.00;22.00;;;;;12.18;89.65;100549.84;4823746;29;10555;-71
2021/11/28 09:05:24;;;;;;;;;19.00;19.00;;;;;12.26;89.34;100556.44;4826182;29;10518;-71
2021/11/28 09:07:52;;;;;;;;;22.00;22.00;;;;;12.30;89.24;100553.81;4842643;29;10476;-70
2021/11/28 09:10:20;;;;;;;;;26.75;23.75;;;;;12.35;88.53;100553.59;4842831;29;10531;-71
2021/11/28 09:12:48;;;;;;;;;23.25;23.00;;;;;12.20;88.59;100555.09;4842710;29;10504;-70
2021/11/28 09:15:17;;;;;;;;;18.75;18.75;;;;;12.39;87.98;100551.72;4842602;29;10598;-71
2021/11/28 09:18:12;;;;;;;;;19.75;19.75;;;;;12.42;87.69;100556.56;4842476;29;10423;-71
2021/11/28 09:20:49;;;;;;;;;16.75;16.75;;;;;12.40;88.01;100565.25;4842719;29;10507;-71
2021/11/28 09:25:45;;;;;;;;;21.25;16.75;;;;;12.49;87.74;100563.16;4842353;29;10510;-72
2021/11/28 09:28:13;;;;;;;;;24.00;23.50;;;;;12.42;87.99;100557.41;4842019;29;10103;-71
2021/11/28 09:30:41;;;;;;;;;21.50;21.50;;;;;12.54;87.59;100556.59;4842397;29;10542;-72
2021/11/28 09:33:09;;;;;;;;;22.75;22.75;;;;;12.63;87.53;100557.28;4842460;29;10177;-72
2021/11/28 09:35:37;;;;;;;;;17.50;17.50;;;;;12.58;88.01;100560.28;4842203;29;10496;-72
2021/11/28 09:38:05;;;;;;;;;16.25;16.25;;;;;12.68;87.64;100559.81;4842200;29;10312;-71
2021/11/28 09:40:33;;;;;;;;;21.00;21.00;;;;;12.77;87.50;100551.38;4842504;29;10005;-72
2021/11/28 09:43:04;;;;;;;;;18.75;18.75;;;;;12.63;88.07;100543.41;4841750;29;10370;-72
2021/11/28 09:45:32;;;;;;;;;22.25;20.50;;;;;12.71;87.74;100539.69;4842190;29;10380;-72
2021/11/28 09:48:03;;;;;;;;;23.00;23.00;;;;;12.69;88.11;100536.47;4814514;29;10381;-73
2021/11/28 09:50:32;;;;;;;;;27.75;27.50;;;;;12.74;88.38;100541.78;4824072;29;10382;-72
2021/11/28 09:53:05;;;;;;;;;19.50;19.50;;;;;12.75;88.19;100542.59;4824118;29;10496;-75
2021/11/28 09:55:36;;;;;;;;;19.50;19.50;;;;;12.78;88.24;100547.44;4825553;29;10443;-76
2021/11/28 09:58:03;;;;;;;;;24.75;23.75;;;;;12.90;87.90;100544.66;4840571;29;10374;-75
2021/11/28 10:00:40;;;;;;;;;25.25;25.25;;;;;12.95;87.99;100546.34;4842037;29;10385;-72
2021/11/28 10:03:36;;;;;;;;;24.50;23.75;;;;;13.00;86.82;100554.44;4823754;29;10353;-71
2021/11/28 10:06:04;;;;;;;;;26.75;26.75;;;;;12.94;87.35;100548.31;4807555;29;11114;-72
2021/11/28 10:09:04;;;;;;;;;27.25;27.25;;;;;13.08;86.78;100540.44;4823611;29;10498;-72
2021/11/28 10:12:10;;;;;;;;;27.00;27.00;;;;;13.22;86.92;100542.03;4826603;29;11180;-73
2021/11/28 10:14:42;;;;;;;;;21.25;20.50;;;;;13.24;86.63;100531.38;4838432;29;10334;-71
2021/11/28 10:17:38;;;;;;;;;27.50;26.50;;;;;13.24;86.63;100528.59;4842837;29;10911;-71
2021/11/28 10:20:28;;;;;;;;;24.00;23.50;;;;;13.26;86.31;100526.28;4845350;29;10220;-71
2021/11/28 10:22:58;;;;;;;;;24.25;23.25;;;;;13.42;86.22;100516.06;4839332;29;9986;-72
2021/11/28 10:26:26;;;;;;;;;24.50;22.75;;;;;13.51;85.92;100513.13;4835292;29;10136;-71
2021/11/28 10:29:28;;;;;;;;;20.50;20.50;;;;;13.51;85.48;100502.81;4816470;29;10082;-71
2021/11/28 10:32:25;;;;;;;;;25.75;25.25;;;;;13.70;84.66;100499.34;4841206;29;10036;-72
2021/11/28 10:35:21;;;;;;;;;22.75;22.75;;;;;13.70;84.67;100484.63;4834891;29;10223;-72
2021/11/28 10:38:17;;;;;;;;;21.25;21.25;;;;;13.78;84.33;100475.31;4834727;29;9946;-70
2021/11/28 10:41:33;;;;;;;;;18.25;18.25;;;;;13.69;83.92;100480.25;4838346;29;9990;-70
2021/11/28 10:44:29;;;;;;;;;34.50;34.00;;;;;13.75;84.12;100462.94;4838369;29;9914;-70
2021/11/28 10:47:38;;;;;;;;;32.50;32.50;;;;;13.93;84.21;100473.72;4831490;29;10295;-71
2021/11/28 10:50:25;;;;;;;;;19.50;19.50;;;;;14.09;83.76;100475.31;4843458;29;10134;-72
2021/11/28 10:53:19;;;;;;;;;20.25;20.25;;;;;13.94;83.69;100473.34;4843359;29;10079;-71
2021/11/28 10:56:16;;;;;;;;;17.00;17.00;;;;;13.85;83.93;100461.59;4822110;29;10002;-72
2021/11/28 10:58:44;;;;;;;;;23.75;23.75;;;;;13.89;83.73;100459.72;4819705;29;9971;-71
2021/11/28 11:01:43;;;;;;;;;13.50;13.50;;;;;13.76;84.33;100455.41;4843204;29;9689;-71
2021/11/28 11:04:19;;;;;;;;;23.25;21.50;;;;;13.56;85.08;100466.41;4840644;29;9704;-71
2021/11/28 11:07:15;;;;;;;;;17.75;17.50;;;;;13.82;83.67;100460.34;4825350;29;9647;-71
2021/11/28 11:10:17;;;;;;;;;17.75;17.75;;;;;13.83;83.67;100472.28;4839182;29;9866;-72
2021/11/28 11:13:19;;;;;;;;;21.25;21.00;;;;;13.87;84.28;100460.06;4841055;29;9779;-72
2021/11/28 11:16:11;;;;;;;;;20.75;20.75;;;;;13.76;84.88;100459.00;4822217;29;9858;-70
2021/11/28 11:18:49;;;;;;;;;20.75;20.75;;;;;13.68;84.80;100456.41;4838370;29;9902;-70
2021/11/28 11:22:18;;;;;;;;;23.75;23.75;;;;;13.85;84.95;100470.75;4840226;29;9983;-72
2021/11/28 11:25:17;;;;;;;;;24.25;22.50;;;;;13.94;84.25;100475.31;4834683;29;9655;-71
2021/11/28 11:28:09;;;;;;;;;22.25;21.50;;;;;13.72;85.31;100476.72;4841673;29;9860;-71
2021/11/28 11:31:08;;;;;;;;;21.00;21.00;;;;;13.88;84.96;100472.03;4836160;29;9678;-71
2021/11/28 11:33:37;;;;;;;;;20.50;20.50;;;;;13.75;85.03;100473.25;4823502;29;9609;-71
2021/11/28 11:36:54;;;;;;;;;24.00;23.00;;;;;13.90;85.05;100475.25;4836241;29;9689;-69
2021/11/28 11:39:27;;;;;;;;;24.25;23.75;;;;;13.95;84.87;100480.50;4842738;29;9665;-71
2021/11/28 11:42:29;;;;;;;;;25.25;24.50;;;;;14.02;84.50;100485.44;4826139;29;9803;-71
2021/11/28 11:45:37;;;;;;;;;21.75;21.75;;;;;14.02;84.56;100483.47;4838155;29;10359;-71
2021/11/28 11:48:34;;;;;;;;;24.50;23.50;;;;;14.04;84.68;100481.16;4837987;29;9700;-71
2021/11/28 11:51:21;;;;;;;;;26.50;26.50;;;;;14.12;84.72;100491.28;4825447;29;9792;-72
2021/11/28 11:54:26;;;;;;;;;22.00;21.00;;;;;14.11;84.11;100486.09;4836141;29;9961;-71
2021/11/28 11:57:40;;;;;;;;;17.00;17.00;;;;;14.01;84.81;100487.41;4832903;29;9701;-71
2021/11/28 12:00:56;;;;;;;;;19.00;19.00;;;;;14.12;84.22;100491.28;4836749;29;9614;-71
2021/11/28 12:04:00;;;;;;;;;20.00;20.00;;;;;14.08;84.59;100487.59;4831910;29;9677;-71
2021/11/28 12:06:56;;;;;;;;;18.75;18.75;;;;;14.15;84.53;100487.78;4836052;29;9681;-71
2021/11/28 12:09:52;;;;;;;;;26.75;26.75;;;;;14.19;84.33;100490.66;4823230;29;9775;-72
2021/11/28 12:12:41;;;;;;;;;20.50;20.50;;;;;14.14;84.38;100483.38;4834031;29;9625;-71
2021/11/28 12:15:49;;;;;;;;;22.50;22.50;;;;;14.10;84.53;100487.25;4838318;29;9703;-71
2021/11/28 12:18:49;;;;;;;;;22.25;21.75;;;;;14.06;85.00;100481.59;4836418;29;9696;-71
2021/11/28 12:21:45;;;;;;;;;23.50;23.25;;;;;13.99;85.65;100489.75;4836476;29;9803;-71
2021/11/28 12:24:28;;;;;;;;;22.50;22.50;;;;;14.09;85.41;100493.97;4817654;29;10607;-71
2021/11/28 12:27:37;;;;;;;;;22.50;22.50;;;;;13.97;85.29;100497.66;4840263;29;9701;-72
2021/11/28 12:30:34;;;;;;;;;25.00;25.00;;;;;13.99;85.70;100495.31;4834376;29;10394;-70
2021/11/28 12:33:03;;;;;;;;;26.75;26.75;;;;;13.90;85.84;100481.59;4816605;29;9745;-71
2021/11/28 12:35:59;;;;;;;;;24.00;24.00;;;;;13.89;86.04;100481.97;4832479;29;9862;-71
2021/11/28 12:38:55;;;;;;;;;19.25;19.25;;;;;13.80;86.37;100486.88;4832581;29;9671;-71
2021/11/28 12:42:02;;;;;;;;;20.75;20.25;;;;;13.75;86.37;100481.59;4835945;29;9596;-71
2021/11/28 12:45:01;;;;;;;;;28.50;28.50;;;;;13.76;86.05;100491.53;4836503;29;10797;-71
2021/11/28 12:48:10;;;;;;;;;24.00;24.00;;;;;13.52;86.78;100496.09;4833524;29;9857;-71
2021/11/28 12:51:19;;;;;;;;;21.50;21.50;;;;;13.58;86.73;100505.78;4833377;29;9675;-70
2021/11/28 12:54:27;;;;;;;;;30.50;30.25;;;;;13.48;86.98;100497.13;4834830;29;9973;-70